createdAt,value
2022-10-23T06:32:29.531Z,99931.22
2022-10-23T06:34:59.393Z,99928.81
2022-10-23T06:37:27.251Z,99908.66
2022-10-23T06:39:55.472Z,99945.94
2022-10-23T06:42:23.192Z,99932.25
2022-10-23T06:44:51.058Z,99942.47
2022-10-23T06:47:19.262Z,99933.38
2022-10-23T06:49:47.179Z,99923.72
2022-10-23T06:52:41.658Z,99944.38
2022-10-23T06:55:05.019Z,99919.72
2022-10-23T06:57:33.198Z,99932.59
2022-10-23T07:00:00.976Z,99948.16
2022-10-23T07:02:28.800Z,99960.47
2022-10-23T07:04:57.062Z,99956.72
2022-10-23T07:07:26.363Z,99919.22
2022-10-23T07:09:54.303Z,99928.38
2022-10-23T07:12:22.667Z,99928.09
2022-10-23T07:14:50.451Z,99918.47
2022-10-23T07:17:18.538Z,99906.38
2022-10-23T07:19:48.503Z,99919.31
2022-10-23T07:22:16.396Z,99899.19
2022-10-23T07:24:46.352Z,99906.44
2022-10-23T07:27:14.805Z,99897.31
2022-10-23T07:29:45.104Z,99912.88
2022-10-23T07:32:12.966Z,99928.16
2022-10-23T07:34:41.234Z,99909.94
2022-10-23T07:37:09.175Z,99925.19
2022-10-23T07:39:37.027Z,99896.53
2022-10-23T07:42:06.979Z,99880.75
2022-10-23T07:44:34.782Z,99888.53
2022-10-23T07:47:02.677Z,99889.06
2022-10-23T07:49:30.783Z,99878.88
2022-10-23T07:51:58.911Z,99917.47
2022-10-23T07:54:26.847Z,99882.66
2022-10-23T07:56:55.298Z,99893.38
2022-10-23T07:59:24.623Z,99867.41
2022-10-23T08:01:55.797Z,99897.94
2022-10-23T08:04:24.969Z,99885.34
2022-10-23T08:06:53.508Z,99881.59
2022-10-23T08:09:21.322Z,99892.59
2022-10-23T08:11:49.538Z,99874.38
2022-10-23T08:14:17.760Z,99866.34
2022-10-23T08:16:47.027Z,99858.31
2022-10-23T08:19:15.430Z,99871.19
2022-10-23T08:21:43.307Z,99876.53
2022-10-23T08:24:13.885Z,99868.50
2022-10-23T08:26:41.870Z,99842.81
2022-10-23T08:29:09.767Z,99847.38
2022-10-23T08:31:38.169Z,99866.13
2022-10-23T08:34:07.445Z,99849.50
2022-10-23T08:36:36.437Z,99842.81
2022-10-23T08:39:05.038Z,99843.63
2022-10-23T08:41:36.294Z,99817.94
2022-10-23T08:44:11.258Z,99805.88
2022-10-23T08:46:43.492Z,99810.16
2022-10-23T08:49:26.138Z,99769.78
2022-10-23T08:51:56.950Z,99783.38
2022-10-23T08:54:29.640Z,99790.63
2022-10-23T08:57:04.539Z,99763.34
2022-10-23T08:59:40.821Z,99751.28
2022-10-23T09:02:17.934Z,99745.69
2022-10-23T09:04:50.100Z,99753.72
2022-10-23T09:07:30.696Z,99767.91
2022-10-23T09:10:09.036Z,99784.19
2022-10-23T09:12:39.535Z,99796.50
2022-10-23T09:15:24.080Z,99790.88
2022-10-23T09:17:58.718Z,99763.06
2022-10-23T09:20:30.730Z,99770.53
2022-10-23T09:23:01.565Z,99758.50
2022-10-23T09:25:32.328Z,99772.41
2022-10-23T09:28:05.337Z,99729.88
2022-10-23T09:30:36.800Z,99776.13
2022-10-23T09:33:16.560Z,99745.91
2022-10-23T09:35:57.181Z,99762.72
2022-10-23T09:38:31.439Z,99762.47
2022-10-23T09:41:01.782Z,99751.22
2022-10-23T09:43:30.323Z,99750.16
2022-10-23T09:46:00.379Z,99750.66
2022-10-23T09:48:29.059Z,99761.38
2022-10-23T09:51:00.843Z,99762.44
2022-10-23T09:53:34.639Z,99750.66
2022-10-23T09:56:05.021Z,99769.13
2022-10-23T09:58:38.955Z,99753.59
2022-10-23T10:01:07.217Z,99757.63
2022-10-23T10:03:35.133Z,99778.50
2022-10-23T10:06:06.128Z,99760.84
2022-10-23T10:08:41.788Z,99742.88
2022-10-23T10:11:17.424Z,99745.28
2022-10-23T10:14:17.710Z,99775.22
2022-10-23T10:16:53.165Z,99781.59
2022-10-23T10:19:27.879Z,99778.91
2022-10-23T10:22:09.405Z,99744.38
2022-10-23T10:24:43.237Z,99744.59
2022-10-23T10:27:22.614Z,99753.94
2022-10-23T10:30:03.231Z,99727.47
2022-10-23T10:32:39.474Z,99748.00
2022-10-23T10:35:34.934Z,99717.00
2022-10-23T10:38:32.327Z,99723.63
2022-10-23T10:41:29.607Z,99737.22
2022-10-23T10:44:09.881Z,99739.59
2022-10-23T10:46:45.228Z,99736.09
2022-10-23T10:49:17.894Z,99728.81
2022-10-23T10:51:54.708Z,99683.09
2022-10-23T10:54:37.515Z,99683.03
2022-10-23T10:57:12.331Z,99723.41
2022-10-23T10:59:44.290Z,99696.09
2022-10-23T11:02:26.924Z,99711.56
2022-10-23T11:05:01.973Z,99685.34
2022-10-23T11:07:36.645Z,99671.94
2022-10-23T11:10:16.861Z,99687.94
2022-10-23T11:12:46.979Z,99697.00
2022-10-23T11:15:18.089Z,99683.03
2022-10-23T11:17:50.219Z,99670.72
2022-10-23T11:20:29.749Z,99671.19
2022-10-23T11:23:07.892Z,99672.78
2022-10-23T11:25:58.605Z,99688.22
2022-10-23T11:28:42.477Z,99678.31
2022-10-23T11:31:22.278Z,99679.56
2022-10-23T11:34:18.740Z,99669.88
2022-10-23T11:36:50.594Z,99651.06
2022-10-23T11:39:27.162Z,99669.75
2022-10-23T11:41:58.864Z,99656.38
2022-10-23T11:44:42.945Z,99638.69
2022-10-23T11:47:35.141Z,99623.38
2022-10-23T11:50:28.538Z,99663.66
2022-10-23T11:53:13.672Z,99656.44
2022-10-23T11:56:02.523Z,99652.28
2022-10-23T11:58:43.299Z,99628.19
2022-10-23T12:01:26.475Z,99638.81
2022-10-23T12:04:03.434Z,99616.97
2022-10-23T12:06:33.747Z,99612.06
2022-10-23T12:09:06.677Z,99608.22
2022-10-23T12:11:45.252Z,99602.00
2022-10-23T12:14:34.023Z,99620.81
2022-10-23T12:17:02.668Z,99608.78
2022-10-23T12:19:39.211Z,99579.28
2022-10-23T12:22:11.872Z,99601.38
2022-10-23T12:24:56.751Z,99604.00
2022-10-23T12:27:33.354Z,99573.03
2022-10-23T12:30:21.539Z,99603.53
2022-10-23T12:33:12.653Z,99590.31
2022-10-23T12:36:26.920Z,99574.38
2022-10-23T12:38:58.539Z,99560.22
2022-10-23T12:41:28.114Z,99547.09
2022-10-23T12:43:59.377Z,99557.38
2022-10-23T12:46:34.410Z,99565.09
2022-10-23T12:49:04.503Z,99532.06
2022-10-23T12:51:35.181Z,99549.13
2022-10-23T12:54:04.329Z,99538.78
2022-10-23T12:56:37.526Z,99541.81
2022-10-23T12:59:06.526Z,99551.41
2022-10-23T13:01:37.688Z,99560.50
2022-10-23T13:04:15.125Z,99544.44
2022-10-23T13:06:43.832Z,99539.66
2022-10-23T13:09:23.897Z,99541.28
2022-10-23T13:11:53.235Z,99555.66
2022-10-23T13:14:34.785Z,99553.22
2022-10-23T13:17:09.401Z,99557.94
2022-10-23T13:19:38.103Z,99518.75
2022-10-23T13:22:16.552Z,99537.88
2022-10-23T13:24:45.520Z,99519.22
2022-10-23T13:27:26.755Z,99523.16
2022-10-23T13:29:54.750Z,99504.19
2022-10-23T13:32:26.798Z,99500.41
2022-10-23T13:35:04.202Z,99525.97
2022-10-23T13:37:38.415Z,99516.25
2022-10-23T13:40:10.670Z,99527.34
2022-10-23T13:42:38.532Z,99531.16
2022-10-23T13:45:16.051Z,99515.09
2022-10-23T13:47:45.605Z,99506.03
2022-10-23T13:50:13.855Z,99524.75
2022-10-23T13:52:42.285Z,99519.16
2022-10-23T13:55:20.704Z,99528.72
2022-10-23T13:57:49.077Z,99518.78
2022-10-23T14:00:18.028Z,99494.25
2022-10-23T14:02:47.254Z,99501.91
2022-10-23T14:05:15.561Z,99516.81
2022-10-23T14:07:43.706Z,99515.69
2022-10-23T14:10:11.907Z,99506.63
2022-10-23T14:12:42.060Z,99513.81
2022-10-23T14:15:12.095Z,99504.94
2022-10-23T14:17:40.244Z,99501.72
2022-10-23T14:20:11.274Z,99491.88
2022-10-23T14:22:39.197Z,99496.66
2022-10-23T14:25:10.270Z,99486.50
2022-10-23T14:27:38.240Z,99481.72
2022-10-23T14:30:07.422Z,99493.84
2022-10-23T14:32:35.448Z,99485.88
2022-10-23T14:35:04.080Z,99458.50
2022-10-23T14:37:34.093Z,99472.75
2022-10-23T14:40:02.197Z,99473.84
2022-10-23T14:42:34.362Z,99478.34
2022-10-23T14:45:02.800Z,99472.53
2022-10-23T14:47:31.237Z,99462.66
2022-10-23T14:49:59.233Z,99429.09
2022-10-23T14:52:27.185Z,99448.63
2022-10-23T14:54:56.332Z,99425.50
2022-10-23T14:57:24.345Z,99441.72
2022-10-23T14:59:52.159Z,99443.84
2022-10-23T15:02:19.936Z,99415.03
2022-10-23T15:04:47.944Z,99394.03
2022-10-23T15:07:15.780Z,99408.84
2022-10-23T15:09:43.558Z,99406.97
2022-10-23T15:12:13.154Z,99411.16
2022-10-23T15:14:40.983Z,99388.84
2022-10-23T15:17:14.553Z,99397.00
2022-10-23T15:19:43.696Z,99405.16
2022-10-23T15:22:11.888Z,99411.34
2022-10-23T15:24:39.724Z,99402.56
2022-10-23T15:27:07.577Z,99423.50
2022-10-23T15:29:37.503Z,99411.34
2022-10-23T15:32:07.696Z,99420.72
2022-10-23T15:34:37.684Z,99433.75
2022-10-23T15:37:05.693Z,99404.56
2022-10-23T15:39:35.535Z,99395.91
2022-10-23T15:42:05.716Z,99417.13
2022-10-23T15:44:35.093Z,99393.22
2022-10-23T15:47:04.785Z,99373.78
2022-10-23T15:49:33.778Z,99388.44
2022-10-23T15:52:02.362Z,99389.91
2022-10-23T15:54:32.710Z,99393.22
2022-10-23T15:57:01.805Z,99381.06
2022-10-23T15:59:31.435Z,99380.06
2022-10-23T16:01:59.823Z,99387.53
2022-10-23T16:04:30.248Z,99387.53
2022-10-23T16:06:58.237Z,99360.63
2022-10-23T16:09:26.223Z,99348.97
2022-10-23T16:11:55.021Z,99343.03
2022-10-23T16:14:22.835Z,99369.28
2022-10-23T16:16:50.780Z,99353.19
2022-10-23T16:19:19.359Z,99350.00
2022-10-23T16:21:48.656Z,99361.84
2022-10-23T16:24:16.478Z,99355.16
2022-10-23T16:26:46.009Z,99357.38
2022-10-23T16:29:13.986Z,99338.13
2022-10-23T16:31:42.236Z,99338.44
2022-10-23T16:34:12.715Z,99355.88
2022-10-23T16:36:42.944Z,99323.28
2022-10-23T18:08:30.975Z,99343.59
2022-10-23T18:11:01.076Z,99352.09
2022-10-23T18:13:35.616Z,99321.19
2022-10-23T18:16:11.517Z,99338.63
2022-10-23T18:18:40.556Z,99445.75
